Time;durP1;ratioP1;P1;durP2;ratioP2;P2;SDS_P1;SDS_P2;PMS_P1;PMS_P2;Temp;Humidity;BMP_temperature;BMP_pressure;BME280_temperature;BME280_humidity;BME280_pressure;Samples;Min_cycle;Max_cycle;Signal;HPM_P1;HPM_P2
2023/01/11 00:01:09;;;;;;;6.20;1.70;;;23.40;68.30;;;;;;5050873;28;20204;-71
2023/01/11 00:03:36;;;;;;;6.80;2.30;;;23.40;67.90;;;;;;5052291;28;20188;-71
2023/01/11 00:06:05;;;;;;;7.40;1.90;;;23.40;67.70;;;;;;5052103;28;20190;-72
2023/01/11 00:08:32;;;;;;;9.87;2.00;;;23.30;67.60;;;;;;5052414;28;20183;-70
2023/01/11 00:11:01;;;;;;;9.37;1.70;;;23.30;66.80;;;;;;5052082;28;20318;-70
2023/01/11 00:13:29;;;;;;;9.23;1.93;;;23.20;66.90;;;;;;5051884;28;20591;-73
2023/01/11 00:15:57;;;;;;;10.43;3.57;;;23.20;66.90;;;;;;5051416;28;20179;-73
2023/01/11 00:18:24;;;;;;;7.43;2.47;;;23.10;67.10;;;;;;5052001;28;20539;-70
2023/01/11 00:20:52;;;;;;;8.90;2.10;;;23.20;66.90;;;;;;5052152;28;20168;-70
2023/01/11 00:23:19;;;;;;;9.43;2.17;;;23.30;66.60;;;;;;5048546;28;20714;-71
2023/01/11 00:25:46;;;;;;;8.13;2.07;;;23.30;66.80;;;;;;5051847;28;20225;-70
2023/01/11 00:28:14;;;;;;;4.03;2.40;;;23.20;66.80;;;;;;5051040;28;20180;-71
2023/01/11 00:30:41;;;;;;;6.90;1.87;;;23.30;66.30;;;;;;5052173;28;20206;-71
2023/01/11 00:33:10;;;;;;;8.77;1.80;;;23.30;66.30;;;;;;5054661;28;20219;-69
2023/01/11 00:35:38;;;;;;;10.73;2.00;;;23.30;66.40;;;;;;5056499;28;20275;-70
2023/01/11 00:38:05;;;;;;;5.57;2.13;;;23.20;66.30;;;;;;5056360;28;20191;-71
2023/01/11 00:40:32;;;;;;;6.57;2.10;;;23.30;66.10;;;;;;5063165;28;20621;-70
2023/01/11 00:48:31;;;;;;;8.07;2.00;;;23.30;65.50;;;;;;5053194;28;20234;-73
2023/01/11 00:50:58;;;;;;;5.40;1.80;;;23.40;65.40;;;;;;5055690;28;20578;-72
2023/01/11 00:53:25;;;;;;;7.47;2.40;;;23.50;65.00;;;;;;5050694;28;20601;-72
2023/01/11 00:55:53;;;;;;;7.53;2.70;;;23.60;64.80;;;;;;5055686;28;20180;-73
2023/01/11 00:58:20;;;;;;;5.63;2.03;;;23.50;64.30;;;;;;5055465;28;20180;-72
2023/01/11 01:00:47;;;;;;;4.80;2.07;;;23.60;64.00;;;;;;5055629;28;20708;-73
2023/01/11 01:03:15;;;;;;;4.50;1.70;;;23.60;64.20;;;;;;5054735;28;20192;-72
2023/01/11 01:05:42;;;;;;;7.97;2.00;;;23.60;64.70;;;;;;5055596;28;20180;-72
2023/01/11 01:08:09;;;;;;;6.50;2.00;;;23.70;64.40;;;;;;5054158;28;20266;-74
2023/01/11 01:10:36;;;;;;;4.00;1.80;;;23.80;63.80;;;;;;5055691;28;20531;-73
2023/01/11 01:15:55;;;;;;;5.27;1.90;;;23.80;64.00;;;;;;5051687;28;20191;-73
2023/01/11 01:18:22;;;;;;;5.63;2.17;;;23.80;63.80;;;;;;5054985;28;20249;-74
2023/01/11 01:20:50;;;;;;;5.93;1.90;;;23.80;63.40;;;;;;5055573;28;20659;-72
2023/01/11 01:23:18;;;;;;;7.37;2.03;;;23.70;64.00;;;;;;5054908;28;20233;-71
2023/01/11 01:25:45;;;;;;;9.00;2.40;;;23.80;63.90;;;;;;5053588;28;20172;-73
2023/01/11 01:28:12;;;;;;;5.73;2.00;;;23.80;63.70;;;;;;5056831;28;20263;-72
2023/01/11 01:30:40;;;;;;;7.03;2.60;;;23.80;63.90;;;;;;5062227;28;20692;-70
2023/01/11 01:33:07;;;;;;;5.30;2.30;;;23.90;64.00;;;;;;5059974;28;20287;-72
2023/01/11 01:35:37;;;;;;;6.83;2.20;;;24.00;63.10;;;;;;5059645;28;20171;-71
2023/01/11 01:38:05;;;;;;;6.30;2.33;;;24.00;63.00;;;;;;5059981;28;20180;-72
2023/01/11 01:40:32;;;;;;;10.60;2.37;;;24.10;63.10;;;;;;5065983;28;20167;-71
2023/01/11 01:42:59;;;;;;;6.70;2.50;;;24.20;62.80;;;;;;5063816;28;20184;-70
2023/01/11 01:45:28;;;;;;;10.40;2.17;;;24.30;62.60;;;;;;5067234;28;20673;-71
2023/01/11 01:48:02;;;;;;;8.67;2.47;;;24.30;62.80;;;;;;5054715;28;20192;-71
2023/01/11 01:50:52;;;;;;;6.97;2.57;;;24.40;61.80;;;;;;5054705;28;20251;-72
2023/01/11 01:53:51;;;;;;;7.80;2.47;;;24.40;62.00;;;;;;5055744;28;20214;-72
2023/01/11 01:56:32;;;;;;;4.97;2.37;;;24.50;61.40;;;;;;5051545;28;20187;-71
2023/01/11 01:59:06;;;;;;;6.03;1.70;;;24.80;61.20;;;;;;5053010;28;20366;-70
2023/01/11 02:01:49;;;;;;;4.83;2.13;;;24.90;60.10;;;;;;5057513;28;20668;-71
2023/01/11 02:04:27;;;;;;;5.13;1.93;;;25.00;60.40;;;;;;5061526;28;20175;-71
2023/01/11 02:07:04;;;;;;;9.70;2.27;;;24.90;59.10;;;;;;5053010;28;20180;-71
2023/01/11 02:09:46;;;;;;;6.73;2.23;;;24.80;59.80;;;;;;5059054;28;20207;-73
2023/01/11 02:12:14;;;;;;;8.67;2.67;;;24.70;60.10;;;;;;5063058;28;20377;-70
2023/01/11 02:14:44;;;;;;;7.03;2.83;;;24.90;59.00;;;;;;5058124;28;20530;-71
2023/01/11 02:17:11;;;;;;;6.67;2.23;;;24.80;58.70;;;;;;5060951;28;20622;-73
2023/01/11 02:19:53;;;;;;;11.30;2.90;;;24.70;59.10;;;;;;5061200;28;20183;-70
2023/01/11 02:23:00;;;;;;;6.10;2.17;;;25.00;58.60;;;;;;5065211;28;20653;-73
2023/01/11 02:25:49;;;;;;;9.80;2.47;;;25.10;58.70;;;;;;5051506;28;20262;-72
2023/01/11 02:28:40;;;;;;;7.13;2.33;;;25.40;58.90;;;;;;5053875;28;20192;-72
2023/01/11 02:31:26;;;;;;;5.07;2.10;;;25.40;58.00;;;;;;5049807;28;20175;-73
2023/01/11 02:34:19;;;;;;;5.00;2.40;;;25.20;57.90;;;;;;5068361;28;20216;-71
2023/01/11 02:37:16;;;;;;;7.63;2.40;;;25.20;58.70;;;;;;5051165;28;20584;-71
2023/01/11 02:40:02;;;;;;;13.60;2.80;;;25.30;58.10;;;;;;5052673;28;20256;-71
2023/01/11 02:45:49;;;;;;;7.00;2.10;;;25.20;58.60;;;;;;5048063;28;20203;-72
2023/01/11 02:48:25;;;;;;;5.03;2.00;;;25.40;57.80;;;;;;5052381;28;20287;-72
2023/01/11 02:51:12;;;;;;;5.70;2.23;;;25.50;57.20;;;;;;5051937;28;20223;-72
2023/01/11 02:54:05;;;;;;;7.50;2.50;;;25.40;57.30;;;;;;5050949;28;20210;-71
2023/01/11 02:56:41;;;;;;;3.83;2.00;;;25.70;57.30;;;;;;5051774;28;20639;-73
2023/01/11 02:59:16;;;;;;;8.20;2.57;;;25.60;57.00;;;;;;5050829;28;20179;-71
2023/01/11 03:01:49;;;;;;;6.53;2.10;;;25.70;56.60;;;;;;5052089;28;20272;-73
2023/01/11 03:04:30;;;;;;;6.93;2.60;;;25.80;56.40;;;;;;5048626;28;20255;-71
2023/01/11 03:07:26;;;;;;;8.27;2.50;;;26.10;55.80;;;;;;5050281;28;20179;-71
2023/01/11 03:10:07;;;;;;;5.87;2.30;;;26.10;55.60;;;;;;5053222;28;20650;-73
2023/01/11 03:12:53;;;;;;;4.77;2.27;;;26.40;55.30;;;;;;5046752;28;20726;-72
2023/01/11 03:15:54;;;;;;;7.40;2.33;;;26.10;55.70;;;;;;5052732;28;20183;-70
2023/01/11 03:18:53;;;;;;;4.20;2.30;;;26.30;55.00;;;;;;5053050;28;20203;-73
2023/01/11 03:21:21;;;;;;;9.57;2.43;;;26.80;53.90;;;;;;5051560;28;20195;-70
2023/01/11 03:24:08;;;;;;;8.90;2.50;;;26.80;54.20;;;;;;5051837;28;20179;-69
2023/01/11 03:26:49;;;;;;;7.67;2.20;;;27.00;53.10;;;;;;5052931;28;20183;-71
2023/01/11 03:29:37;;;;;;;5.13;2.13;;;27.20;53.10;;;;;;5050700;28;20222;-71
2023/01/11 03:32:22;;;;;;;2.97;2.13;;;26.90;53.80;;;;;;5050544;28;20187;-72
2023/01/11 03:35:11;;;;;;;109.37;17.83;;;26.80;54.50;;;;;;5052791;28;20179;-70
2023/01/11 03:37:53;;;;;;;9.73;2.67;;;26.80;54.50;;;;;;5049663;28;20191;-71
2023/01/11 03:40:38;;;;;;;4.87;1.87;;;27.30;53.50;;;;;;5049717;28;20206;-73
2023/01/11 03:43:12;;;;;;;5.60;2.70;;;26.60;53.70;;;;;;5052573;28;20772;-72
2023/01/11 03:45:58;;;;;;;6.07;2.43;;;26.50;54.60;;;;;;5052493;28;20258;-72
2023/01/11 03:48:37;;;;;;;6.03;2.13;;;26.80;52.90;;;;;;5051393;28;20175;-72
2023/01/11 03:51:10;;;;;;;6.93;2.67;;;26.90;53.00;;;;;;5051648;28;20231;-71
2023/01/11 03:53:39;;;;;;;3.33;2.00;;;27.20;52.60;;;;;;5049143;28;20207;-70
2023/01/11 03:56:12;;;;;;;7.13;2.50;;;26.80;53.60;;;;;;5052037;28;20195;-72
2023/01/11 03:58:39;;;;;;;7.57;2.43;;;26.90;53.20;;;;;;5047632;28;20179;-71
2023/01/11 04:01:07;;;;;;;5.63;2.60;;;26.80;53.30;;;;;;5047875;28;20172;-71
2023/01/11 04:03:34;;;;;;;3.73;2.10;;;27.00;52.50;;;;;;5049901;28;20317;-72
2023/01/11 04:06:02;;;;;;;4.07;2.07;;;27.00;53.10;;;;;;5066830;28;20255;-71
2023/01/11 04:08:32;;;;;;;3.23;2.10;;;26.80;53.10;;;;;;5050677;28;20188;-70
2023/01/11 04:11:02;;;;;;;7.40;2.37;;;26.50;53.70;;;;;;5051241;28;20726;-70
2023/01/11 04:13:29;;;;;;;5.33;2.23;;;26.80;53.90;;;;;;5051788;28;20687;-70
2023/01/11 04:15:57;;;;;;;7.93;2.43;;;27.30;52.90;;;;;;5050983;28;20183;-71
2023/01/11 04:18:24;;;;;;;6.40;2.27;;;27.60;51.80;;;;;;5053265;28;20187;-70
2023/01/11 04:20:51;;;;;;;6.80;2.37;;;27.80;50.70;;;;;;5055257;28;20662;-71
2023/01/11 04:23:19;;;;;;;4.13;2.07;;;27.30;51.00;;;;;;5052877;28;20215;-72
2023/01/11 04:25:46;;;;;;;4.40;2.03;;;27.10;51.90;;;;;;5053668;28;20602;-73
2023/01/11 04:28:14;;;;;;;5.93;1.90;;;26.50;53.00;;;;;;5050049;28;20180;-73
2023/01/11 04:30:41;;;;;;;4.53;2.43;;;26.50;53.00;;;;;;5052419;28;20768;-72
2023/01/11 04:33:11;;;;;;;4.27;2.23;;;27.10;52.60;;;;;;5050759;28;20303;-72
2023/01/11 04:35:39;;;;;;;5.23;2.27;;;27.50;51.00;;;;;;5053836;28;20246;-71
2023/01/11 04:38:06;;;;;;;4.80;2.13;;;27.80;50.50;;;;;;5048388;28;20176;-73
2023/01/11 04:40:34;;;;;;;5.97;2.47;;;27.70;49.90;;;;;;5051551;28;20184;-73
2023/01/11 04:43:01;;;;;;;7.33;2.23;;;27.80;50.70;;;;;;5049404;28;20258;-75
2023/01/11 04:45:29;;;;;;;10.23;2.40;;;27.90;49.90;;;;;;5051556;28;20186;-72
2023/01/11 04:47:57;;;;;;;4.90;2.30;;;28.30;49.60;;;;;;5052268;28;20670;-72
2023/01/11 04:50:26;;;;;;;4.45;1.95;;;28.60;48.90;;;;;;5051241;28;20648;-72
2023/01/11 04:52:54;;;;;;;7.57;2.43;;;29.30;47.50;;;;;;5049502;28;20203;-73
2023/01/11 04:55:21;;;;;;;7.10;2.70;;;28.80;48.00;;;;;;5050395;28;20708;-75
2023/01/11 04:57:49;;;;;;;5.28;2.20;;;29.30;46.80;;;;;;5052120;28;20240;-70
2023/01/11 05:00:16;;;;;;;4.80;2.10;;;29.60;45.40;;;;;;5050449;28;20188;-73
2023/01/11 05:02:44;;;;;;;7.18;2.35;;;29.30;46.70;;;;;;5050270;28;20516;-71
2023/01/11 05:05:11;;;;;;;5.78;2.20;;;29.30;46.20;;;;;;5051988;28;20183;-73
2023/01/11 05:07:39;;;;;;;6.00;2.08;;;29.90;45.70;;;;;;5049166;28;20169;-72
2023/01/11 05:10:08;;;;;;;7.00;2.15;;;29.80;45.00;;;;;;5051173;28;20187;-72
2023/01/11 05:12:35;;;;;;;12.02;2.47;;;29.90;44.70;;;;;;5048439;28;20196;-71
2023/01/11 05:15:03;;;;;;;2.60;1.85;;;29.80;45.90;;;;;;5050361;28;20211;-71
2023/01/11 05:17:30;;;;;;;5.05;2.10;;;29.30;45.90;;;;;;5056995;28;20227;-70
2023/01/11 05:19:57;;;;;;;4.38;1.80;;;29.50;45.90;;;;;;5055925;28;20179;-71
2023/01/11 05:22:25;;;;;;;6.53;2.22;;;30.10;44.60;;;;;;5070269;28;20570;-69
2023/01/11 05:24:52;;;;;;;5.55;2.40;;;30.30;44.60;;;;;;5053037;28;20188;-72
2023/01/11 05:27:19;;;;;;;6.85;1.58;;;30.30;44.10;;;;;;5055887;28;20694;-71
2023/01/11 05:29:46;;;;;;;5.80;2.00;;;30.10;44.10;;;;;;5058178;28;20194;-72
2023/01/11 05:32:14;;;;;;;3.50;1.77;;;29.80;44.80;;;;;;5057063;28;20187;-72
2023/01/11 05:34:41;;;;;;;6.68;2.40;;;29.20;45.80;;;;;;5053459;28;20696;-71
2023/01/11 05:37:08;;;;;;;7.65;2.03;;;29.20;46.30;;;;;;5053686;28;20208;-71
2023/01/11 05:39:36;;;;;;;6.38;2.60;;;29.80;45.50;;;;;;5054220;28;20269;-71
2023/01/11 05:42:03;;;;;;;10.30;2.50;;;29.60;45.70;;;;;;5051405;28;20187;-72
2023/01/11 05:47:16;;;;;;;5.10;2.25;;;30.80;42.80;;;;;;5053411;28;20210;-71
2023/01/11 05:49:43;;;;;;;4.68;2.10;;;30.20;44.80;;;;;;5057791;28;20268;-70
2023/01/11 05:52:10;;;;;;;5.25;2.10;;;30.40;44.30;;;;;;5054359;28;20257;-70
2023/01/11 05:54:38;;;;;;;4.15;1.83;;;30.30;44.40;;;;;;5054388;28;20199;-72
2023/01/11 05:57:09;;;;;;;4.55;2.08;;;29.60;45.20;;;;;;5052734;28;20650;-69
2023/01/11 05:59:36;;;;;;;6.28;2.60;;;29.80;45.10;;;;;;5052582;28;20172;-73
2023/01/11 06:02:04;;;;;;;5.57;2.15;;;29.80;45.70;;;;;;5052622;28;20176;-71
2023/01/11 06:04:31;;;;;;;3.97;1.90;;;29.80;46.30;;;;;;5054154;28;20195;-71
2023/01/11 06:06:58;;;;;;;7.32;1.83;;;30.10;46.10;;;;;;5052921;28;20230;-72
2023/01/11 06:09:27;;;;;;;6.47;1.92;;;30.30;45.70;;;;;;5052467;28;20583;-69
2023/01/11 06:11:54;;;;;;;4.25;2.10;;;31.00;45.00;;;;;;5049326;28;20261;-73
2023/01/11 06:14:22;;;;;;;3.53;1.95;;;31.30;43.90;;;;;;5051204;28;20251;-72
2023/01/11 06:16:49;;;;;;;5.75;2.00;;;31.40;43.40;;;;;;5054175;28;20172;-70
2023/01/11 06:19:16;;;;;;;5.97;1.88;;;30.80;45.60;;;;;;5053414;28;20194;-73
2023/01/11 06:21:43;;;;;;;2.97;1.90;;;29.90;47.50;;;;;;5052907;28;20208;-71
2023/01/11 06:24:11;;;;;;;3.60;1.80;;;30.00;47.90;;;;;;5054750;28;20180;-72
2023/01/11 06:26:38;;;;;;;3.03;1.73;;;29.80;48.40;;;;;;5056832;28;20582;-73
2023/01/11 06:29:06;;;;;;;5.35;2.40;;;29.50;49.50;;;;;;5052658;28;20226;-72
2023/01/11 06:31:33;;;;;;;6.20;2.50;;;28.40;51.40;;;;;;5051461;28;20545;-72
2023/01/11 06:34:00;;;;;;;5.37;2.27;;;27.40;54.00;;;;;;5053035;28;20706;-71
2023/01/11 06:36:27;;;;;;;5.57;2.17;;;27.60;54.60;;;;;;5053445;28;20179;-73
2023/01/11 06:38:55;;;;;;;9.80;2.30;;;27.80;53.10;;;;;;5053623;28;20579;-74
2023/01/11 06:41:22;;;;;;;8.77;2.63;;;27.60;54.50;;;;;;5052946;28;20187;-71
2023/01/11 06:43:50;;;;;;;7.77;2.50;;;28.20;53.60;;;;;;5050677;28;20172;-72
2023/01/11 06:46:18;;;;;;;8.52;2.20;;;29.00;51.40;;;;;;5052790;28;20263;-73
2023/01/11 06:48:46;;;;;;;5.47;1.83;;;29.30;50.70;;;;;;5052613;28;20179;-73
2023/01/11 06:51:15;;;;;;;4.18;1.80;;;29.50;49.70;;;;;;5051446;28;20220;-71
2023/01/11 06:53:45;;;;;;;4.03;2.28;;;29.80;49.80;;;;;;5053297;28;20242;-73
2023/01/11 06:56:19;;;;;;;4.40;2.10;;;30.30;47.90;;;;;;5052733;28;20738;-74
2023/01/11 06:58:47;;;;;;;6.75;2.22;;;30.80;47.10;;;;;;5050557;28;20709;-72
2023/01/11 07:01:14;;;;;;;5.78;2.10;;;30.00;48.30;;;;;;5049219;28;20271;-71
2023/01/11 07:03:42;;;;;;;4.38;2.13;;;28.20;53.10;;;;;;5052481;28;20539;-71
2023/01/11 07:06:09;;;;;;;5.13;1.87;;;27.60;55.40;;;;;;5052408;28;20815;-73
2023/01/11 07:08:37;;;;;;;6.43;2.20;;;28.10;54.60;;;;;;5052154;28;20237;-72
2023/01/11 07:11:04;;;;;;;8.63;2.53;;;27.70;55.40;;;;;;5051635;28;20184;-74
2023/01/11 07:13:32;;;;;;;6.77;2.10;;;26.80;57.10;;;;;;5055905;28;20293;-73
2023/01/11 07:15:59;;;;;;;5.67;2.20;;;26.60;58.50;;;;;;5051763;28;20545;-71
2023/01/11 07:18:26;;;;;;;4.53;2.07;;;27.50;56.40;;;;;;5052311;28;20180;-74
2023/01/11 07:20:54;;;;;;;5.87;2.03;;;27.40;56.50;;;;;;5053628;28;20180;-74
2023/01/11 07:23:21;;;;;;;8.17;2.13;;;27.50;56.50;;;;;;5052949;28;20643;-73
2023/01/11 07:25:48;;;;;;;8.27;2.20;;;27.80;55.40;;;;;;5052792;28;20265;-71
2023/01/11 07:28:16;;;;;;;12.50;2.40;;;27.90;55.30;;;;;;5052844;28;20180;-73
2023/01/11 07:30:43;;;;;;;10.07;2.40;;;27.40;57.10;;;;;;5047672;28;20673;-71
2023/01/11 07:33:11;;;;;;;4.77;1.80;;;27.10;58.30;;;;;;5052542;28;20208;-73
2023/01/11 07:35:38;;;;;;;5.63;2.47;;;26.80;59.70;;;;;;5052009;28;20704;-71
2023/01/11 07:38:08;;;;;;;6.60;2.50;;;26.30;60.80;;;;;;5048515;28;20313;-71
2023/01/11 07:40:38;;;;;;;5.93;2.20;;;25.70;63.00;;;;;;5051449;28;20274;-74
2023/01/11 07:43:14;;;;;;;6.13;2.40;;;25.30;64.20;;;;;;5051583;28;20188;-73
2023/01/11 07:45:45;;;;;;;7.40;2.30;;;25.20;64.80;;;;;;5051025;28;20286;-72
2023/01/11 07:48:13;;;;;;;4.43;2.00;;;25.00;64.80;;;;;;5047394;28;20175;-72
2023/01/11 07:50:41;;;;;;;9.20;2.57;;;24.90;64.90;;;;;;5051931;28;20227;-71
2023/01/11 07:53:09;;;;;;;8.77;2.17;;;24.90;64.70;;;;;;5052503;28;20200;-74
2023/01/11 07:55:38;;;;;;;7.03;2.30;;;24.70;65.10;;;;;;5050879;28;20191;-72
2023/01/11 07:58:06;;;;;;;7.30;2.43;;;24.70;64.90;;;;;;5055167;28;20667;-73
2023/01/11 08:00:34;;;;;;;5.93;2.00;;;24.60;64.70;;;;;;5049890;28;20179;-70
2023/01/11 08:03:02;;;;;;;8.33;2.00;;;24.50;64.70;;;;;;5051474;28;20188;-72
2023/01/11 08:05:29;;;;;;;4.60;2.27;;;24.30;64.60;;;;;;5051021;28;20717;-70
2023/01/11 08:07:58;;;;;;;14.50;2.60;;;24.40;64.80;;;;;;5052655;28;20658;-70
2023/01/11 08:10:25;;;;;;;8.27;2.40;;;24.60;64.40;;;;;;5052770;28;20227;-73
2023/01/11 08:15:41;;;;;;;8.47;2.20;;;24.50;64.10;;;;;;5050720;28;20214;-73
2023/01/11 08:18:10;;;;;;;4.63;1.77;;;24.30;64.50;;;;;;5051908;28;20180;-71
2023/01/11 08:20:38;;;;;;;8.30;2.47;;;24.30;64.40;;;;;;5052241;28;20217;-71
2023/01/11 08:23:08;;;;;;;7.73;2.07;;;24.30;64.90;;;;;;5052379;28;20190;-74
2023/01/11 08:25:36;;;;;;;9.87;2.60;;;24.30;64.80;;;;;;5048987;28;20211;-74
2023/01/11 08:28:05;;;;;;;7.57;2.40;;;24.10;65.50;;;;;;5051516;28;20236;-71
2023/01/11 08:30:34;;;;;;;9.97;2.53;;;24.20;65.40;;;;;;5049806;28;20265;-70
2023/01/11 08:33:02;;;;;;;9.07;3.20;;;24.20;65.60;;;;;;5051211;28;20214;-70
2023/01/11 08:35:31;;;;;;;8.67;2.93;;;24.10;65.20;;;;;;5050325;28;20180;-69
2023/01/11 08:37:58;;;;;;;7.10;2.70;;;24.10;65.20;;;;;;5046404;28;20698;-72
2023/01/11 08:40:25;;;;;;;5.97;2.47;;;24.00;65.60;;;;;;5050841;28;20266;-73
2023/01/11 08:42:58;;;;;;;6.43;2.50;;;23.90;66.40;;;;;;5051116;28;20538;-70
2023/01/11 08:45:26;;;;;;;6.03;2.30;;;23.80;67.30;;;;;;5049877;28;20176;-72
2023/01/11 08:47:54;;;;;;;8.67;2.70;;;23.80;67.60;;;;;;5050981;28;20183;-71
2023/01/11 08:50:22;;;;;;;7.30;2.20;;;23.60;68.10;;;;;;5050982;28;20286;-71
2023/01/11 08:52:50;;;;;;;7.17;2.73;;;23.60;68.60;;;;;;5051627;28;20207;-73
2023/01/11 08:55:18;;;;;;;8.53;2.20;;;23.60;68.50;;;;;;5055112;28;20191;-72
2023/01/11 08:57:45;;;;;;;8.17;2.70;;;23.50;69.20;;;;;;5054611;28;20700;-73
2023/01/11 09:00:13;;;;;;;10.93;2.50;;;23.40;69.70;;;;;;5055000;28;20258;-72
2023/01/11 09:02:41;;;;;;;9.80;2.53;;;23.40;69.90;;;;;;5055994;28;20194;-73
2023/01/11 09:05:08;;;;;;;7.57;2.13;;;23.30;70.60;;;;;;5054264;28;20188;-72
2023/01/11 09:07:36;;;;;;;8.43;2.77;;;23.30;70.80;;;;;;5054750;28;20184;-72
2023/01/11 09:10:04;;;;;;;9.77;2.90;;;23.20;71.30;;;;;;5054270;28;20188;-72
2023/01/11 09:12:32;;;;;;;5.70;2.40;;;23.20;71.60;;;;;;5051756;28;20665;-72
2023/01/11 09:14:59;;;;;;;5.97;2.30;;;23.10;71.60;;;;;;5054911;28;20584;-72
2023/01/11 09:17:26;;;;;;;5.43;2.30;;;23.10;72.20;;;;;;5054721;28;20267;-71
2023/01/11 09:19:54;;;;;;;10.70;3.00;;;23.00;72.50;;;;;;5054404;28;20689;-71
2023/01/11 09:22:21;;;;;;;8.13;2.63;;;23.10;72.40;;;;;;5053633;28;20210;-72
2023/01/11 09:24:48;;;;;;;9.80;2.83;;;23.00;72.60;;;;;;5054600;28;20199;-71
2023/01/11 09:27:16;;;;;;;8.13;2.57;;;23.00;72.80;;;;;;5054150;28;20184;-72
2023/01/11 09:29:44;;;;;;;6.30;2.57;;;22.90;72.80;;;;;;5054162;28;20176;-71
2023/01/11 09:32:12;;;;;;;9.90;2.63;;;22.90;73.20;;;;;;5055046;28;20193;-73
2023/01/11 09:34:41;;;;;;;9.73;2.60;;;22.80;73.50;;;;;;5050578;28;20211;-72
2023/01/11 09:37:09;;;;;;;6.10;2.60;;;22.80;73.70;;;;;;5049680;28;20900;-70
2023/01/11 09:39:37;;;;;;;8.00;2.70;;;22.80;73.70;;;;;;5052881;28;20192;-73
2023/01/11 09:42:43;;;;;;;10.73;3.03;;;22.80;73.90;;;;;;5053252;28;20195;-72
2023/01/11 09:45:32;;;;;;;14.60;2.90;;;22.70;73.80;;;;;;5054335;28;20342;-73
2023/01/11 09:48:21;;;;;;;9.17;2.50;;;22.70;74.20;;;;;;5054606;28;20186;-71
2023/01/11 09:50:49;;;;;;;9.00;2.53;;;22.70;74.10;;;;;;5052809;28;20223;-74
2023/01/11 09:53:30;;;;;;;10.10;3.17;;;22.60;74.30;;;;;;5055918;28;20208;-72
2023/01/11 09:56:01;;;;;;;14.20;3.17;;;22.60;74.10;;;;;;5052645;28;20249;-72
2023/01/11 09:59:04;;;;;;;9.10;2.77;;;22.60;74.20;;;;;;5047370;28;20193;-73
2023/01/11 10:02:08;;;;;;;8.97;3.17;;;22.60;74.40;;;;;;5051979;28;20180;-72
2023/01/11 10:04:51;;;;;;;6.60;2.30;;;22.60;74.10;;;;;;5034853;28;20180;-70
2023/01/11 10:07:56;;;;;;;10.30;3.00;;;22.60;74.30;;;;;;5052939;28;20176;-72
2023/01/11 10:10:47;;;;;;;10.20;3.47;;;22.50;74.50;;;;;;5051545;28;20290;-75
2023/01/11 10:13:44;;;;;;;12.33;2.67;;;22.60;74.60;;;;;;5048132;28;20212;-75
2023/01/11 10:16:20;;;;;;;9.00;2.90;;;22.50;74.60;;;;;;5051492;28;20176;-74
2023/01/11 10:19:15;;;;;;;9.03;3.00;;;22.60;74.80;;;;;;5050781;28;20185;-75
2023/01/11 10:22:04;;;;;;;10.67;2.63;;;22.50;74.80;;;;;;5049147;28;20184;-71
2023/01/11 10:24:43;;;;;;;10.23;3.00;;;22.50;75.10;;;;;;5053015;28;20194;-70
2023/01/11 10:27:36;;;;;;;7.27;2.90;;;22.50;75.10;;;;;;5052411;28;20184;-73
2023/01/11 10:33:27;;;;;;;11.00;2.73;;;22.40;75.40;;;;;;5049736;28;20214;-71
2023/01/11 10:42:04;;;;;;;11.97;2.67;;;22.30;75.30;;;;;;5054177;28;20188;-72
2023/01/11 10:44:37;;;;;;;8.03;2.70;;;22.30;75.10;;;;;;5055885;28;20194;-71
2023/01/11 10:47:12;;;;;;;8.20;2.47;;;22.30;75.10;;;;;;5054010;28;20191;-69
2023/01/11 10:49:50;;;;;;;9.97;2.83;;;22.30;75.20;;;;;;5051832;28;20222;-71
2023/01/11 10:52:52;;;;;;;11.17;2.83;;;22.30;75.10;;;;;;5052540;28;20184;-74
2023/01/11 10:55:44;;;;;;;9.73;2.60;;;22.20;75.50;;;;;;5056267;28;20190;-72
2023/01/11 10:58:43;;;;;;;8.90;2.83;;;22.20;75.70;;;;;;5051570;28;20180;-76
2023/01/11 11:01:37;;;;;;;12.97;3.00;;;22.20;75.60;;;;;;5053526;28;20229;-73
2023/01/11 11:04:16;;;;;;;8.07;2.63;;;22.10;75.60;;;;;;5055707;28;20223;-74
2023/01/11 11:06:53;;;;;;;11.30;2.63;;;22.10;75.80;;;;;;5063152;28;20183;-74
2023/01/11 11:09:46;;;;;;;10.90;3.23;;;22.10;75.80;;;;;;5051827;28;20192;-71
2023/01/11 11:12:24;;;;;;;5.43;2.27;;;22.00;76.00;;;;;;5050674;28;20230;-70
2023/01/11 11:14:57;;;;;;;8.00;2.53;;;22.00;76.00;;;;;;5052374;28;20569;-72
2023/01/11 11:17:37;;;;;;;8.80;3.00;;;22.00;76.10;;;;;;5052066;28;20180;-70
2023/01/11 11:20:25;;;;;;;11.17;3.30;;;22.00;76.30;;;;;;5054844;28;20184;-71
2023/01/11 11:22:55;;;;;;;6.67;2.67;;;22.00;76.50;;;;;;5058544;28;20634;-72
2023/01/11 11:25:37;;;;;;;11.63;3.00;;;22.00;76.50;;;;;;5055463;28;20949;-73
2023/01/11 11:28:07;;;;;;;12.77;2.80;;;21.90;76.30;;;;;;5054248;28;20196;-70
2023/01/11 11:30:46;;;;;;;13.03;3.10;;;21.90;76.40;;;;;;5051624;28;20191;-70
2023/01/11 11:33:20;;;;;;;7.63;2.60;;;21.90;76.40;;;;;;5044717;28;20207;-71
2023/01/11 11:36:05;;;;;;;7.77;2.40;;;21.90;76.40;;;;;;5051883;28;20187;-71
2023/01/11 11:38:35;;;;;;;11.93;2.70;;;21.90;76.60;;;;;;5050191;28;20190;-72
2023/01/11 11:41:11;;;;;;;9.57;2.80;;;21.90;76.40;;;;;;5054489;28;20634;-70
2023/01/11 11:43:41;;;;;;;9.77;2.80;;;21.80;76.50;;;;;;5058411;28;20190;-74
2023/01/11 11:46:18;;;;;;;12.40;3.00;;;21.80;76.30;;;;;;5048520;28;20191;-70
2023/01/11 11:49:04;;;;;;;11.67;2.73;;;21.90;76.00;;;;;;5059786;28;20266;-74
2023/01/11 11:51:32;;;;;;;8.37;2.87;;;21.90;76.10;;;;;;5057853;28;20231;-71
2023/01/11 11:54:00;;;;;;;8.50;2.87;;;21.80;76.10;;;;;;5059299;28;20592;-75
2023/01/11 11:56:37;;;;;;;9.40;2.83;;;21.90;76.20;;;;;;5061744;28;20232;-70
2023/01/11 11:59:14;;;;;;;10.13;3.20;;;21.90;76.20;;;;;;5060570;28;20203;-73
2023/01/11 12:01:45;;;;;;;9.73;2.80;;;21.90;76.30;;;;;;5094909;28;20179;-70
2023/01/11 12:04:21;;;;;;;7.13;2.57;;;21.90;76.10;;;;;;5061015;28;20229;-71
2023/01/11 12:07:08;;;;;;;7.07;2.90;;;22.00;76.10;;;;;;5059887;28;20179;-72
2023/01/11 12:09:39;;;;;;;10.63;2.90;;;22.00;76.10;;;;;;5049593;28;20184;-71
2023/01/11 12:12:07;;;;;;;8.53;2.50;;;22.00;76.10;;;;;;5053214;28;20172;-74
2023/01/11 12:14:35;;;;;;;11.87;2.77;;;22.00;76.10;;;;;;5054634;28;20211;-74
2023/01/11 12:17:24;;;;;;;9.17;2.57;;;22.00;76.20;;;;;;5052312;28;20183;-72
2023/01/11 12:19:52;;;;;;;14.10;3.17;;;22.10;76.20;;;;;;5051027;28;20179;-71
2023/01/11 12:22:29;;;;;;;10.10;3.17;;;22.10;76.20;;;;;;5051514;28;20226;-73
2023/01/11 12:25:23;;;;;;;9.87;2.97;;;22.00;76.30;;;;;;5050001;28;20190;-75
2023/01/11 12:28:51;;;;;;;9.20;2.40;;;22.00;76.30;;;;;;5050762;28;20176;-74
2023/01/11 12:31:46;;;;;;;11.30;2.80;;;22.10;76.50;;;;;;5006473;28;20257;-75
2023/01/11 12:34:47;;;;;;;7.83;2.53;;;22.10;76.50;;;;;;5029331;28;20303;-73
2023/01/11 12:37:24;;;;;;;9.80;2.33;;;22.10;76.60;;;;;;5047621;28;20603;-75
2023/01/11 12:40:26;;;;;;;11.00;2.77;;;22.10;76.50;;;;;;5050511;28;20277;-75
2023/01/11 12:43:15;;;;;;;13.60;3.07;;;22.10;76.60;;;;;;5024271;28;20221;-74
2023/01/11 12:45:49;;;;;;;12.20;2.90;;;22.20;76.50;;;;;;5049901;28;20639;-75
2023/01/11 12:48:24;;;;;;;10.77;3.23;;;22.20;76.60;;;;;;5050424;28;20256;-73
2023/01/11 12:50:58;;;;;;;14.70;2.70;;;22.20;76.50;;;;;;5051258;28;20268;-73
2023/01/11 12:54:15;;;;;;;11.97;2.60;;;22.10;76.30;;;;;;5049986;28;20199;-74
2023/01/11 12:57:02;;;;;;;9.77;2.73;;;22.10;76.30;;;;;;5043313;28;20546;-74
2023/01/11 12:59:50;;;;;;;12.43;3.10;;;22.10;76.40;;;;;;5049987;28;20215;-76
2023/01/11 13:02:37;;;;;;;9.50;2.90;;;22.10;76.30;;;;;;5047352;28;20176;-77
2023/01/11 13:05:37;;;;;;;9.03;2.70;;;22.10;76.40;;;;;;5037532;28;20190;-71
2023/01/11 13:08:13;;;;;;;7.23;2.50;;;22.00;76.20;;;;;;5013167;28;20651;-73
2023/01/11 13:11:10;;;;;;;11.63;3.20;;;22.00;76.20;;;;;;5048247;28;20176;-79
2023/01/11 13:14:01;;;;;;;11.77;3.03;;;22.10;76.10;;;;;;5044939;28;20236;-74
2023/01/11 13:16:46;;;;;;;8.40;2.47;;;22.10;76.20;;;;;;5047949;28;20233;-75
2023/01/11 13:19:58;;;;;;;15.20;3.20;;;22.10;76.20;;;;;;5050171;28;20272;-76
2023/01/11 13:22:31;;;;;;;13.00;2.90;;;22.00;76.30;;;;;;5031976;28;20310;-73
2023/01/11 13:25:01;;;;;;;10.97;2.63;;;22.10;76.40;;;;;;5050425;28;20179;-74
2023/01/11 13:27:30;;;;;;;11.90;2.87;;;22.00;76.40;;;;;;5051127;28;20257;-76
2023/01/11 13:30:00;;;;;;;7.40;2.20;;;22.10;76.30;;;;;;5051463;28;20650;-75
2023/01/11 13:32:36;;;;;;;7.50;2.47;;;22.00;76.10;;;;;;5049326;28;20650;-74
2023/01/11 13:35:19;;;;;;;7.40;2.33;;;22.00;76.00;;;;;;5050606;28;20660;-74
2023/01/11 13:38:00;;;;;;;9.83;2.47;;;22.10;75.70;;;;;;5050447;28;20306;-76
2023/01/11 13:40:44;;;;;;;11.67;3.17;;;22.20;75.40;;;;;;5054253;28;20196;-75
2023/01/11 13:43:49;;;;;;;9.87;2.87;;;22.30;74.60;;;;;;5052824;28;20199;-75
2023/01/11 13:46:42;;;;;;;8.13;2.70;;;22.40;74.40;;;;;;5039323;28;20765;-73
2023/01/11 13:49:30;;;;;;;8.00;2.60;;;22.40;74.20;;;;;;5052912;28;20527;-70